Black Eagle — WDJJ — position and weather

sailwx.info

Track history (hours):
 
Tides and Currents Weather Stations Pressure Air Temp Water Temp Dewpoint Dewpoint Depression Visibility Wind Speed Wind Dir Waves Ship Positions

Black Eagle

Owner: Sealift Inc., Oyster Bay, NY. More information available from US FCC via Universal Licensing System and Coast Guard Vessel Documentation Center.

Last reported at 2018-Jan-05 10:06 UTC. Time now 2018-Feb-23 10:31 UTC.
Position N 31°30' W 018°47'.
Warning: this ship's position is 49 days out of date.

Length 190 m; draft 9 m.

Type: Cargo ship. MMSI: 369542000.

Date/timePositionNaut miles runAvg speedWind from/ knotsBaromVisibWave heightAir tempDewpointWater temp
2018-Jan-05 10:06N 31°30' W 018°47'114.5
2018-Jan-05 10:01N 31°30' W 018°45'914.7
2018-Jan-05 09:22N 31°31' W 018°34'1214.8
2018-Jan-05 08:33N 31°32' W 018°20'115.2
2018-Jan-05 08:31N 31°32' W 018°19'4415.0
2018-Jan-05 05:34N 31°47' W 017°30'115.0
2018-Jan-05 05:30N 31°48' W 017°29'815.0
2018-Jan-05 04:57N 31°51' W 017°20'4914.9
2018-Jan-05 01:39N 32°10' W 016°27'214.8
2018-Jan-05 01:30N 32°11' W 016°25'714.9
2018-Jan-05 01:00N 32°14' W 016°17'815.2
2018-Jan-05 00:30N 32°17' W 016°08'915.4
2018-Jan-04 23:54N 32°21' W 015°58'1115.7
2018-Jan-04 23:13N 32°26' W 015°47'415.9
2018-Jan-04 22:58N 32°27' W 015°42'715.6
2018-Jan-04 22:31N 32°30' W 015°35'815.5
2018-Jan-04 22:01N 32°33' W 015°26'815.3
2018-Jan-04 21:31N 32°36' W 015°18'815.4
2018-Jan-04 21:00N 32°40' W 015°10'815.7
2018-Jan-04 20:31N 32°43' W 015°01'815.8
2018-Jan-04 19:59N 32°46' W 014°52'915.9
2018-Jan-04 19:25N 32°51' W 014°43'716.1
2018-Jan-04 19:01N 32°54' W 014°36'815.8
2018-Jan-04 18:31N 32°57' W 014°27'815.4
2018-Jan-04 18:01N 33°01' W 014°19'815.4
2018-Jan-04 17:30N 33°04' W 014°11'815.6
2018-Jan-04 17:00N 33°08' W 014°03'1015.6
2018-Jan-04 16:22N 33°12' W 013°52'2415.6
2018-Jan-04 14:52N 33°19' W 013°25'2315.4
2018-Jan-04 13:22N 33°27' W 012°59'615.2
2018-Jan-04 12:57N 33°29' W 012°52'39515.2
2018-Jan-03 11:00N 35°60' W 005°28'711.5
2018-Jan-03 10:24N 36°02' W 005°20'410.3
2018-Jan-03 10:00N 36°03' W 005°15'21514.0
2018-Jan-02 18:40N 36°36' W 000°51'215.1
2018-Jan-02 18:30N 36°37' W 000°48'814.7
2018-Jan-02 17:57N 36°38' W 000°38'714.8
2018-Jan-02 17:28N 36°40' W 000°29'1914.6
2018-Jan-02 16:10N 36°43' W 000°06'63513.3
2017-Dec-31 16:24N 36°44' E 013°06'614.6
2017-Dec-31 16:00N 36°42' E 013°13'2114.4
2017-Dec-31 14:35N 36°34' E 013°36'213.9
2017-Dec-31 14:27N 36°33' E 013°39'614.5
2017-Dec-31 14:00N 36°30' E 013°46'714.5
2017-Dec-31 13:30N 36°27' E 013°54'714.5
2017-Dec-31 13:00N 36°24' E 014°02'714.0
2017-Dec-31 12:30N 36°21' E 014°10'612.7
2017-Dec-31 12:00N 36°18' E 014°17'714.3
2017-Dec-31 11:30N 36°15' E 014°25'714.5
2017-Dec-31 11:00N 36°11' E 014°33'714.9
2017-Dec-31 10:30N 36°06' E 014°40'612.8
2017-Dec-31 10:00N 36°02' E 014°46'3 4.6
2017-Dec-31 09:17N 36°00' E 014°49'0 1.3
2017-Dec-31 09:00N 36°00' E 014°49'  
Track history (hours):
 
Tides and Currents Weather Stations Pressure Air Temp Water Temp Dewpoint Dewpoint Depression Visibility Wind Speed Wind Dir Waves Ship Positions

Black Eagle

Owner: Sealift Inc., Oyster Bay, NY. More information available from US FCC via Universal Licensing System and Coast Guard Vessel Documentation Center.

Last reported at 2018-Jan-05 10:06 UTC. Time now 2018-Feb-23 10:31 UTC.
Position N 31°30' W 018°47'.
Warning: this ship's position is 49 days out of date.

Length 190 m; draft 9 m.

Type: Cargo ship. MMSI: 369542000.

Date/timePositionNaut miles runAvg speedWind from/ knotsBaromVisibWave heightAir tempDewpointWater temp
2018-Jan-05 10:06N 31°30' W 018°47'114.5
2018-Jan-05 10:01N 31°30' W 018°45'914.7
2018-Jan-05 09:22N 31°31' W 018°34'1214.8
2018-Jan-05 08:33N 31°32' W 018°20'115.2
2018-Jan-05 08:31N 31°32' W 018°19'4415.0
2018-Jan-05 05:34N 31°47' W 017°30'115.0
2018-Jan-05 05:30N 31°48' W 017°29'815.0
2018-Jan-05 04:57N 31°51' W 017°20'4914.9
2018-Jan-05 01:39N 32°10' W 016°27'214.8
2018-Jan-05 01:30N 32°11' W 016°25'714.9
2018-Jan-05 01:00N 32°14' W 016°17'815.2
2018-Jan-05 00:30N 32°17' W 016°08'915.4
2018-Jan-04 23:54N 32°21' W 015°58'1115.7
2018-Jan-04 23:13N 32°26' W 015°47'415.9
2018-Jan-04 22:58N 32°27' W 015°42'715.6
2018-Jan-04 22:31N 32°30' W 015°35'815.5
2018-Jan-04 22:01N 32°33' W 015°26'815.3
2018-Jan-04 21:31N 32°36' W 015°18'815.4
2018-Jan-04 21:00N 32°40' W 015°10'815.7
2018-Jan-04 20:31N 32°43' W 015°01'815.8
2018-Jan-04 19:59N 32°46' W 014°52'915.9
2018-Jan-04 19:25N 32°51' W 014°43'716.1
2018-Jan-04 19:01N 32°54' W 014°36'815.8
2018-Jan-04 18:31N 32°57' W 014°27'815.4
2018-Jan-04 18:01N 33°01' W 014°19'815.4
2018-Jan-04 17:30N 33°04' W 014°11'815.6
2018-Jan-04 17:00N 33°08' W 014°03'1015.6
2018-Jan-04 16:22N 33°12' W 013°52'2415.6
2018-Jan-04 14:52N 33°19' W 013°25'2315.4
2018-Jan-04 13:22N 33°27' W 012°59'615.2
2018-Jan-04 12:57N 33°29' W 012°52'39515.2
2018-Jan-03 11:00N 35°60' W 005°28'711.5
2018-Jan-03 10:24N 36°02' W 005°20'410.3
2018-Jan-03 10:00N 36°03' W 005°15'21514.0
2018-Jan-02 18:40N 36°36' W 000°51'215.1
2018-Jan-02 18:30N 36°37' W 000°48'814.7
2018-Jan-02 17:57N 36°38' W 000°38'714.8
2018-Jan-02 17:28N 36°40' W 000°29'1914.6
2018-Jan-02 16:10N 36°43' W 000°06'63513.3
2017-Dec-31 16:24N 36°44' E 013°06'614.6
2017-Dec-31 16:00N 36°42' E 013°13'2114.4
2017-Dec-31 14:35N 36°34' E 013°36'213.9
2017-Dec-31 14:27N 36°33' E 013°39'614.5
2017-Dec-31 14:00N 36°30' E 013°46'714.5
2017-Dec-31 13:30N 36°27' E 013°54'714.5
2017-Dec-31 13:00N 36°24' E 014°02'714.0
2017-Dec-31 12:30N 36°21' E 014°10'612.7
2017-Dec-31 12:00N 36°18' E 014°17'714.3
2017-Dec-31 11:30N 36°15' E 014°25'714.5
2017-Dec-31 11:00N 36°11' E 014°33'714.9
2017-Dec-31 10:30N 36°06' E 014°40'612.8
2017-Dec-31 10:00N 36°02' E 014°46'3 4.6
2017-Dec-31 09:17N 36°00' E 014°49'0 1.3
2017-Dec-31 09:00N 36°00' E 014°49'  

Dump ship's entire track history